sensor_id;sensor_type;location;lat;lon;timestamp;P1;durP1;ratioP1;P2;durP2;ratioP2
45252;SDS011;63171;50.520;30.486;2023-02-22T00:00:49;5.45;;;4.95;;
45252;SDS011;63171;50.520;30.486;2023-02-22T00:01:41;5.10;;;4.60;;
45252;SDS011;63171;50.520;30.486;2023-02-22T00:02:38;5.38;;;4.13;;
45252;SDS011;63171;50.520;30.486;2023-02-22T00:03:28;4.75;;;3.90;;
45252;SDS011;63171;50.520;30.486;2023-02-22T00:04:20;4.78;;;4.10;;
45252;SDS011;63171;50.520;30.486;2023-02-22T00:05:10;4.43;;;3.53;;
45252;SDS011;63171;50.520;30.486;2023-02-22T00:06:04;4.75;;;3.55;;
45252;SDS011;63171;50.520;30.486;2023-02-22T00:06:56;5.22;;;4.32;;
45252;SDS011;63171;50.520;30.486;2023-02-22T00:07:49;6.32;;;3.97;;
45252;SDS011;63171;50.520;30.486;2023-02-22T00:08:39;5.50;;;4.22;;
45252;SDS011;63171;50.520;30.486;2023-02-22T00:09:29;3.95;;;3.53;;
45252;SDS011;63171;50.520;30.486;2023-02-22T00:10:19;4.47;;;4.07;;
45252;SDS011;63171;50.520;30.486;2023-02-22T00:11:10;4.15;;;3.75;;
45252;SDS011;63171;50.520;30.486;2023-02-22T00:12:00;4.78;;;3.92;;
45252;SDS011;63171;50.520;30.486;2023-02-22T00:12:51;4.60;;;3.33;;
45252;SDS011;63171;50.520;30.486;2023-02-22T00:13:41;4.43;;;3.95;;
45252;SDS011;63171;50.520;30.486;2023-02-22T00:14:32;4.38;;;3.58;;
45252;SDS011;63171;50.520;30.486;2023-02-22T00:15:23;4.65;;;4.18;;
45252;SDS011;63171;50.520;30.486;2023-02-22T00:16:18;4.72;;;4.22;;
45252;SDS011;63171;50.520;30.486;2023-02-22T00:17:10;4.70;;;4.30;;
45252;SDS011;63171;50.520;30.486;2023-02-22T00:18:02;4.45;;;3.83;;
45252;SDS011;63171;50.520;30.486;2023-02-22T00:18:52;4.22;;;3.83;;
45252;SDS011;63171;50.520;30.486;2023-02-22T00:19:43;6.18;;;3.45;;
45252;SDS011;63171;50.520;30.486;2023-02-22T00:20:33;4.22;;;3.60;;
45252;SDS011;63171;50.520;30.486;2023-02-22T00:21:27;6.13;;;4.88;;
45252;SDS011;63171;50.520;30.486;2023-02-22T00:22:20;4.68;;;4.13;;
45252;SDS011;63171;50.520;30.486;2023-02-22T00:23:12;5.38;;;4.57;;
45252;SDS011;63171;50.520;30.486;2023-02-22T00:24:04;5.13;;;4.13;;
45252;SDS011;63171;50.520;30.486;2023-02-22T00:25:11;5.13;;;3.67;;
45252;SDS011;63171;50.520;30.486;2023-02-22T00:26:02;4.25;;;3.80;;
45252;SDS011;63171;50.520;30.486;2023-02-22T00:26:53;3.85;;;3.55;;
45252;SDS011;63171;50.520;30.486;2023-02-22T00:27:43;3.67;;;3.35;;
45252;SDS011;63171;50.520;30.486;2023-02-22T00:28:36;4.65;;;4.22;;
45252;SDS011;63171;50.520;30.486;2023-02-22T00:29:26;3.88;;;3.42;;
45252;SDS011;63171;50.520;30.486;2023-02-22T00:31:09;5.43;;;3.80;;
45252;SDS011;63171;50.520;30.486;2023-02-22T00:31:59;3.63;;;3.33;;
45252;SDS011;63171;50.520;30.486;2023-02-22T00:32:49;6.32;;;4.10;;
45252;SDS011;63171;50.520;30.486;2023-02-22T00:33:40;4.00;;;3.58;;
45252;SDS011;63171;50.520;30.486;2023-02-22T00:35:21;4.60;;;3.20;;
45252;SDS011;63171;50.520;30.486;2023-02-22T00:36:14;4.32;;;3.92;;
45252;SDS011;63171;50.520;30.486;2023-02-22T00:37:05;4.72;;;3.90;;
45252;SDS011;63171;50.520;30.486;2023-02-22T00:37:57;4.20;;;3.80;;
45252;SDS011;63171;50.520;30.486;2023-02-22T00:38:49;4.30;;;3.85;;
45252;SDS011;63171;50.520;30.486;2023-02-22T00:39:38;4.65;;;4.15;;
45252;SDS011;63171;50.520;30.486;2023-02-22T00:41:20;3.83;;;3.47;;
45252;SDS011;63171;50.520;30.486;2023-02-22T00:42:13;4.90;;;4.40;;
45252;SDS011;63171;50.520;30.486;2023-02-22T00:43:03;5.05;;;4.53;;
45252;SDS011;63171;50.520;30.486;2023-02-22T00:43:54;5.65;;;4.20;;
45252;SDS011;63171;50.520;30.486;2023-02-22T00:44:44;7.95;;;3.85;;
45252;SDS011;63171;50.520;30.486;2023-02-22T00:45:35;5.15;;;4.05;;
45252;SDS011;63171;50.520;30.486;2023-02-22T00:46:25;4.25;;;3.85;;
45252;SDS011;63171;50.520;30.486;2023-02-22T00:47:15;6.00;;;4.07;;
45252;SDS011;63171;50.520;30.486;2023-02-22T00:48:06;4.20;;;3.80;;
45252;SDS011;63171;50.520;30.486;2023-02-22T00:48:56;4.25;;;3.85;;
45252;SDS011;63171;50.520;30.486;2023-02-22T00:49:47;6.50;;;4.47;;
45252;SDS011;63171;50.520;30.486;2023-02-22T00:50:37;4.35;;;3.95;;
45252;SDS011;63171;50.520;30.486;2023-02-22T00:51:28;5.05;;;4.55;;
45252;SDS011;63171;50.520;30.486;2023-02-22T00:52:18;5.63;;;4.07;;
45252;SDS011;63171;50.520;30.486;2023-02-22T00:53:11;6.93;;;4.65;;
45252;SDS011;63171;50.520;30.486;2023-02-22T00:54:01;5.75;;;4.65;;
45252;SDS011;63171;50.520;30.486;2023-02-22T00:54:51;5.82;;;4.40;;
45252;SDS011;63171;50.520;30.486;2023-02-22T00:55:42;5.30;;;4.78;;
45252;SDS011;63171;50.520;30.486;2023-02-22T00:56:33;5.53;;;4.43;;
45252;SDS011;63171;50.520;30.486;2023-02-22T00:57:23;5.82;;;4.68;;
45252;SDS011;63171;50.520;30.486;2023-02-22T00:58:14;6.22;;;5.13;;
45252;SDS011;63171;50.520;30.486;2023-02-22T00:59:04;5.00;;;4.20;;
45252;SDS011;63171;50.520;30.486;2023-02-22T00:59:55;5.80;;;5.25;;
45252;SDS011;63171;50.520;30.486;2023-02-22T01:02:37;5.65;;;5.05;;
45252;SDS011;63171;50.520;30.486;2023-02-22T01:03:28;4.65;;;4.22;;
45252;SDS011;63171;50.520;30.486;2023-02-22T01:04:20;6.22;;;5.18;;
45252;SDS011;63171;50.520;30.486;2023-02-22T01:05:12;5.90;;;5.07;;
45252;SDS011;63171;50.520;30.486;2023-02-22T01:06:02;6.00;;;5.40;;
45252;SDS011;63171;50.520;30.486;2023-02-22T01:06:54;5.75;;;4.53;;
45252;SDS011;63171;50.520;30.486;2023-02-22T01:07:44;7.50;;;5.00;;
45252;SDS011;63171;50.520;30.486;2023-02-22T01:08:39;5.85;;;5.25;;
45252;SDS011;63171;50.520;30.486;2023-02-22T01:09:32;5.63;;;4.30;;
45252;SDS011;63171;50.520;30.486;2023-02-22T01:10:25;6.10;;;5.38;;
45252;SDS011;63171;50.520;30.486;2023-02-22T01:11:16;6.30;;;5.60;;
45252;SDS011;63171;50.520;30.486;2023-02-22T01:12:07;5.82;;;5.03;;
45252;SDS011;63171;50.520;30.486;2023-02-22T01:12:57;6.88;;;5.15;;
45252;SDS011;63171;50.520;30.486;2023-02-22T01:13:49;6.85;;;5.57;;
45252;SDS011;63171;50.520;30.486;2023-02-22T01:14:43;5.57;;;4.85;;
45252;SDS011;63171;50.520;30.486;2023-02-22T01:15:34;6.18;;;4.97;;
45252;SDS011;63171;50.520;30.486;2023-02-22T01:16:25;6.32;;;5.03;;
45252;SDS011;63171;50.520;30.486;2023-02-22T01:17:16;6.47;;;5.38;;
45252;SDS011;63171;50.520;30.486;2023-02-22T01:18:05;7.97;;;6.18;;
45252;SDS011;63171;50.520;30.486;2023-02-22T01:19:46;6.72;;;5.60;;
45252;SDS011;63171;50.520;30.486;2023-02-22T01:20:35;9.40;;;6.30;;
45252;SDS011;63171;50.520;30.486;2023-02-22T01:21:26;6.07;;;4.80;;
45252;SDS011;63171;50.520;30.486;2023-02-22T01:22:17;5.50;;;5.00;;
45252;SDS011;63171;50.520;30.486;2023-02-22T01:23:07;8.15;;;6.15;;
45252;SDS011;63171;50.520;30.486;2023-02-22T01:23:59;7.28;;;5.72;;
45252;SDS011;63171;50.520;30.486;2023-02-22T01:24:49;5.28;;;4.55;;
45252;SDS011;63171;50.520;30.486;2023-02-22T01:25:40;5.28;;;4.55;;
45252;SDS011;63171;50.520;30.486;2023-02-22T01:26:31;6.20;;;4.68;;
45252;SDS011;63171;50.520;30.486;2023-02-22T01:27:22;7.15;;;5.53;;
45252;SDS011;63171;50.520;30.486;2023-02-22T01:28:11;6.05;;;5.45;;
45252;SDS011;63171;50.520;30.486;2023-02-22T01:29:03;8.63;;;6.20;;
45252;SDS011;63171;50.520;30.486;2023-02-22T01:29:53;5.72;;;5.10;;
45252;SDS011;63171;50.520;30.486;2023-02-22T01:30:44;7.32;;;5.18;;
45252;SDS011;63171;50.520;30.486;2023-02-22T01:31:33;5.20;;;4.70;;
45252;SDS011;63171;50.520;30.486;2023-02-22T01:32:24;7.40;;;5.10;;
45252;SDS011;63171;50.520;30.486;2023-02-22T01:33:14;6.88;;;5.45;;
45252;SDS011;63171;50.520;30.486;2023-02-22T01:34:07;5.65;;;5.07;;
45252;SDS011;63171;50.520;30.486;2023-02-22T01:34:57;5.43;;;4.78;;
45252;SDS011;63171;50.520;30.486;2023-02-22T01:35:48;5.00;;;4.50;;
45252;SDS011;63171;50.520;30.486;2023-02-22T01:36:39;5.30;;;4.45;;
45252;SDS011;63171;50.520;30.486;2023-02-22T01:37:31;7.47;;;5.07;;
45252;SDS011;63171;50.520;30.486;2023-02-22T01:38:22;8.70;;;5.10;;
45252;SDS011;63171;50.520;30.486;2023-02-22T01:39:15;5.45;;;4.40;;
45252;SDS011;63171;50.520;30.486;2023-02-22T01:40:08;6.20;;;5.10;;
45252;SDS011;63171;50.520;30.486;2023-02-22T01:41:04;7.28;;;4.68;;
45252;SDS011;63171;50.520;30.486;2023-02-22T01:41:54;6.10;;;4.80;;
45252;SDS011;63171;50.520;30.486;2023-02-22T01:42:46;4.85;;;4.43;;
45252;SDS011;63171;50.520;30.486;2023-02-22T01:43:37;5.32;;;4.63;;
45252;SDS011;63171;50.520;30.486;2023-02-22T01:44:28;4.68;;;3.75;;
45252;SDS011;63171;50.520;30.486;2023-02-22T01:46:47;5.18;;;4.57;;
45252;SDS011;63171;50.520;30.486;2023-02-22T01:47:37;5.63;;;4.38;;
45252;SDS011;63171;50.520;30.486;2023-02-22T01:48:29;6.15;;;4.32;;
45252;SDS011;63171;50.520;30.486;2023-02-22T01:49:23;4.35;;;3.78;;
45252;SDS011;63171;50.520;30.486;2023-02-22T01:50:18;4.32;;;3.80;;
45252;SDS011;63171;50.520;30.486;2023-02-22T01:51:11;4.35;;;3.90;;
45252;SDS011;63171;50.520;30.486;2023-02-22T01:52:05;4.50;;;4.10;;
45252;SDS011;63171;50.520;30.486;2023-02-22T01:52:58;5.32;;;4.43;;
45252;SDS011;63171;50.520;30.486;2023-02-22T01:53:49;6.50;;;5.00;;
45252;SDS011;63171;50.520;30.486;2023-02-22T01:54:45;5.10;;;4.28;;
45252;SDS011;63171;50.520;30.486;2023-02-22T01:55:37;5.22;;;4.22;;
45252;SDS011;63171;50.520;30.486;2023-02-22T01:56:29;5.45;;;4.38;;
45252;SDS011;63171;50.520;30.486;2023-02-22T01:57:22;5.15;;;4.45;;
45252;SDS011;63171;50.520;30.486;2023-02-22T01:58:15;6.10;;;4.10;;
45252;SDS011;63171;50.520;30.486;2023-02-22T01:59:09;4.05;;;3.60;;
45252;SDS011;63171;50.520;30.486;2023-02-22T02:00:04;4.25;;;3.65;;
45252;SDS011;63171;50.520;30.486;2023-02-22T02:01:02;4.63;;;4.20;;
45252;SDS011;63171;50.520;30.486;2023-02-22T02:01:53;4.90;;;4.03;;
45252;SDS011;63171;50.520;30.486;2023-02-22T02:02:43;5.55;;;4.00;;
45252;SDS011;63171;50.520;30.486;2023-02-22T02:03:36;5.32;;;4.38;;
45252;SDS011;63171;50.520;30.486;2023-02-22T02:04:28;5.13;;;3.92;;
45252;SDS011;63171;50.520;30.486;2023-02-22T02:05:21;5.22;;;4.05;;
45252;SDS011;63171;50.520;30.486;2023-02-22T02:06:13;5.25;;;4.25;;
45252;SDS011;63171;50.520;30.486;2023-02-22T02:07:05;4.97;;;3.55;;
45252;SDS011;63171;50.520;30.486;2023-02-22T02:08:00;5.78;;;4.40;;
45252;SDS011;63171;50.520;30.486;2023-02-22T02:09:09;4.80;;;4.03;;
45252;SDS011;63171;50.520;30.486;2023-02-22T02:10:06;6.30;;;3.97;;
45252;SDS011;63171;50.520;30.486;2023-02-22T02:11:03;5.47;;;4.40;;
45252;SDS011;63171;50.520;30.486;2023-02-22T02:11:55;5.55;;;4.55;;
45252;SDS011;63171;50.520;30.486;2023-02-22T02:12:49;5.10;;;4.07;;
45252;SDS011;63171;50.520;30.486;2023-02-22T02:13:44;4.32;;;3.45;;
45252;SDS011;63171;50.520;30.486;2023-02-22T02:14:33;4.20;;;3.80;;
45252;SDS011;63171;50.520;30.486;2023-02-22T02:15:29;4.72;;;4.22;;
45252;SDS011;63171;50.520;30.486;2023-02-22T02:16:24;5.35;;;4.28;;
45252;SDS011;63171;50.520;30.486;2023-02-22T02:17:20;4.25;;;3.70;;
45252;SDS011;63171;50.520;30.486;2023-02-22T02:18:12;5.30;;;3.85;;
45252;SDS011;63171;50.520;30.486;2023-02-22T02:19:02;4.90;;;4.40;;
45252;SDS011;63171;50.520;30.486;2023-02-22T02:19:59;4.47;;;3.92;;
45252;SDS011;63171;50.520;30.486;2023-02-22T02:21:04;5.55;;;4.18;;
45252;SDS011;63171;50.520;30.486;2023-02-22T02:22:26;5.47;;;3.80;;
45252;SDS011;63171;50.520;30.486;2023-02-22T02:23:40;4.72;;;4.20;;
45252;SDS011;63171;50.520;30.486;2023-02-22T02:26:35;5.03;;;3.83;;
45252;SDS011;63171;50.520;30.486;2023-02-22T02:29:27;3.72;;;3.40;;
45252;SDS011;63171;50.520;30.486;2023-02-22T02:30:53;4.30;;;3.13;;
45252;SDS011;63171;50.520;30.486;2023-02-22T02:32:17;6.57;;;4.07;;
45252;SDS011;63171;50.520;30.486;2023-02-22T02:33:11;3.95;;;3.55;;
45252;SDS011;63171;50.520;30.486;2023-02-22T02:34:10;4.95;;;3.95;;
45252;SDS011;63171;50.520;30.486;2023-02-22T02:35:14;4.90;;;4.22;;
45252;SDS011;63171;50.520;30.486;2023-02-22T02:36:13;4.22;;;3.30;;
45252;SDS011;63171;50.520;30.486;2023-02-22T02:37:08;4.68;;;4.00;;
45252;SDS011;63171;50.520;30.486;2023-02-22T02:38:04;3.78;;;3.25;;
45252;SDS011;63171;50.520;30.486;2023-02-22T02:38:59;5.45;;;3.60;;
45252;SDS011;63171;50.520;30.486;2023-02-22T02:40:00;4.95;;;3.72;;
45252;SDS011;63171;50.520;30.486;2023-02-22T02:41:02;4.65;;;4.10;;
45252;SDS011;63171;50.520;30.486;2023-02-22T02:41:59;4.63;;;3.85;;
45252;SDS011;63171;50.520;30.486;2023-02-22T02:42:57;4.22;;;3.65;;
45252;SDS011;63171;50.520;30.486;2023-02-22T02:43:56;4.68;;;3.72;;
45252;SDS011;63171;50.520;30.486;2023-02-22T02:44:52;5.47;;;4.57;;
45252;SDS011;63171;50.520;30.486;2023-02-22T02:45:50;4.90;;;4.22;;
45252;SDS011;63171;50.520;30.486;2023-02-22T02:46:45;5.45;;;4.45;;
45252;SDS011;63171;50.520;30.486;2023-02-22T02:47:44;6.55;;;4.35;;
45252;SDS011;63171;50.520;30.486;2023-02-22T02:48:41;4.68;;;4.15;;
45252;SDS011;63171;50.520;30.486;2023-02-22T02:49:36;6.13;;;3.90;;
45252;SDS011;63171;50.520;30.486;2023-02-22T02:50:33;4.80;;;3.83;;
45252;SDS011;63171;50.520;30.486;2023-02-22T02:51:30;4.25;;;3.72;;
45252;SDS011;63171;50.520;30.486;2023-02-22T02:52:24;5.70;;;4.07;;
45252;SDS011;63171;50.520;30.486;2023-02-22T02:53:19;3.75;;;3.13;;
45252;SDS011;63171;50.520;30.486;2023-02-22T02:54:12;5.82;;;4.40;;
45252;SDS011;63171;50.520;30.486;2023-02-22T02:55:04;4.70;;;3.72;;
45252;SDS011;63171;50.520;30.486;2023-02-22T02:55:57;3.13;;;2.85;;
45252;SDS011;63171;50.520;30.486;2023-02-22T02:56:49;3.20;;;2.63;;
45252;SDS011;63171;50.520;30.486;2023-02-22T02:57:39;3.72;;;3.35;;
45252;SDS011;63171;50.520;30.486;2023-02-22T02:58:29;3.88;;;3.35;;
45252;SDS011;63171;50.520;30.486;2023-02-22T02:59:23;5.35;;;3.60;;
45252;SDS011;63171;50.520;30.486;2023-02-22T03:00:17;3.63;;;3.30;;
45252;SDS011;63171;50.520;30.486;2023-02-22T03:01:12;4.85;;;3.20;;
45252;SDS011;63171;50.520;30.486;2023-02-22T03:02:13;4.57;;;3.90;;
45252;SDS011;63171;50.520;30.486;2023-02-22T03:04:50;4.28;;;3.78;;
45252;SDS011;63171;50.520;30.486;2023-02-22T03:06:02;3.50;;;2.95;;
45252;SDS011;63171;50.520;30.486;2023-02-22T03:07:10;5.55;;;3.95;;
45252;SDS011;63171;50.520;30.486;2023-02-22T03:08:10;5.82;;;3.35;;
45252;SDS011;63171;50.520;30.486;2023-02-22T03:09:07;5.35;;;3.78;;
45252;SDS011;63171;50.520;30.486;2023-02-22T03:10:09;4.32;;;3.92;;
45252;SDS011;63171;50.520;30.486;2023-02-22T03:11:15;5.32;;;3.53;;
45252;SDS011;63171;50.520;30.486;2023-02-22T03:12:13;4.85;;;3.63;;
45252;SDS011;63171;50.520;30.486;2023-02-22T03:13:18;4.40;;;3.90;;
45252;SDS011;63171;50.520;30.486;2023-02-22T03:14:21;3.90;;;3.47;;
45252;SDS011;63171;50.520;30.486;2023-02-22T03:15:18;4.63;;;3.55;;
45252;SDS011;63171;50.520;30.486;2023-02-22T03:16:23;5.20;;;3.95;;
45252;SDS011;63171;50.520;30.486;2023-02-22T03:17:25;4.88;;;4.07;;
45252;SDS011;63171;50.520;30.486;2023-02-22T03:18:26;4.80;;;4.32;;
45252;SDS011;63171;50.520;30.486;2023-02-22T03:19:24;3.60;;;3.30;;
45252;SDS011;63171;50.520;30.486;2023-02-22T03:20:20;4.47;;;4.07;;
45252;SDS011;63171;50.520;30.486;2023-02-22T03:21:23;7.20;;;4.05;;
45252;SDS011;63171;50.520;30.486;2023-02-22T03:22:20;4.47;;;3.95;;
45252;SDS011;63171;50.520;30.486;2023-02-22T03:23:17;5.32;;;4.20;;
45252;SDS011;63171;50.520;30.486;2023-02-22T03:24:15;4.75;;;3.47;;
45252;SDS011;63171;50.520;30.486;2023-02-22T03:25:13;5.22;;;3.50;;
45252;SDS011;63171;50.520;30.486;2023-02-22T03:26:06;4.25;;;3.85;;
45252;SDS011;63171;50.520;30.486;2023-02-22T03:27:02;4.10;;;3.70;;
45252;SDS011;63171;50.520;30.486;2023-02-22T03:27:59;4.80;;;4.30;;
45252;SDS011;63171;50.520;30.486;2023-02-22T03:28:53;4.82;;;4.20;;
45252;SDS011;63171;50.520;30.486;2023-02-22T03:29:44;4.20;;;3.72;;
45252;SDS011;63171;50.520;30.486;2023-02-22T03:30:40;5.47;;;4.05;;
45252;SDS011;63171;50.520;30.486;2023-02-22T03:31:33;4.82;;;4.32;;
45252;SDS011;63171;50.520;30.486;2023-02-22T03:32:28;7.22;;;5.03;;
45252;SDS011;63171;50.520;30.486;2023-02-22T03:33:24;5.22;;;3.97;;
45252;SDS011;63171;50.520;30.486;2023-02-22T03:34:27;5.05;;;4.35;;
45252;SDS011;63171;50.520;30.486;2023-02-22T03:35:23;4.47;;;4.07;;
45252;SDS011;63171;50.520;30.486;2023-02-22T03:36:18;6.20;;;5.10;;
45252;SDS011;63171;50.520;30.486;2023-02-22T03:37:16;5.78;;;5.03;;
45252;SDS011;63171;50.520;30.486;2023-02-22T03:38:10;6.82;;;5.45;;
45252;SDS011;63171;50.520;30.486;2023-02-22T03:39:06;7.63;;;5.35;;
45252;SDS011;63171;50.520;30.486;2023-02-22T03:40:04;6.72;;;5.97;;
45252;SDS011;63171;50.520;30.486;2023-02-22T03:41:02;7.45;;;6.05;;
45252;SDS011;63171;50.520;30.486;2023-02-22T03:41:54;6.72;;;5.70;;
45252;SDS011;63171;50.520;30.486;2023-02-22T03:42:47;7.13;;;6.13;;
45252;SDS011;63171;50.520;30.486;2023-02-22T03:43:44;6.97;;;5.05;;
45252;SDS011;63171;50.520;30.486;2023-02-22T03:44:39;6.22;;;5.55;;
45252;SDS011;63171;50.520;30.486;2023-02-22T03:45:33;6.07;;;5.03;;
45252;SDS011;63171;50.520;30.486;2023-02-22T03:46:26;6.88;;;6.03;;
45252;SDS011;63171;50.520;30.486;2023-02-22T03:47:20;7.95;;;7.15;;
45252;SDS011;63171;50.520;30.486;2023-02-22T03:48:18;6.65;;;5.60;;
45252;SDS011;63171;50.520;30.486;2023-02-22T03:49:16;7.68;;;5.85;;
45252;SDS011;63171;50.520;30.486;2023-02-22T03:50:14;6.05;;;5.45;;
45252;SDS011;63171;50.520;30.486;2023-02-22T03:51:07;7.10;;;6.32;;
45252;SDS011;63171;50.520;30.486;2023-02-22T03:52:50;7.93;;;5.90;;
45252;SDS011;63171;50.520;30.486;2023-02-22T03:53:46;7.47;;;4.97;;
45252;SDS011;63171;50.520;30.486;2023-02-22T03:54:37;6.22;;;4.50;;
45252;SDS011;63171;50.520;30.486;2023-02-22T03:55:28;6.88;;;5.18;;
45252;SDS011;63171;50.520;30.486;2023-02-22T03:56:21;10.60;;;5.90;;
45252;SDS011;63171;50.520;30.486;2023-02-22T03:57:14;6.60;;;5.15;;
45252;SDS011;63171;50.520;30.486;2023-02-22T03:58:15;7.25;;;5.78;;
45252;SDS011;63171;50.520;30.486;2023-02-22T03:59:07;7.88;;;6.05;;
45252;SDS011;63171;50.520;30.486;2023-02-22T03:59:59;7.15;;;4.70;;
45252;SDS011;63171;50.520;30.486;2023-02-22T04:00:49;7.30;;;5.65;;
45252;SDS011;63171;50.520;30.486;2023-02-22T04:01:41;6.38;;;5.05;;
45252;SDS011;63171;50.520;30.486;2023-02-22T04:02:31;5.90;;;5.22;;
45252;SDS011;63171;50.520;30.486;2023-02-22T04:03:22;7.57;;;5.68;;
45252;SDS011;63171;50.520;30.486;2023-02-22T04:04:12;6.35;;;5.25;;
45252;SDS011;63171;50.520;30.486;2023-02-22T04:05:04;7.45;;;5.50;;
45252;SDS011;63171;50.520;30.486;2023-02-22T04:05:56;6.47;;;5.25;;
45252;SDS011;63171;50.520;30.486;2023-02-22T04:06:46;9.02;;;6.20;;
45252;SDS011;63171;50.520;30.486;2023-02-22T04:07:36;6.22;;;4.70;;
45252;SDS011;63171;50.520;30.486;2023-02-22T04:08:28;7.88;;;6.20;;
45252;SDS011;63171;50.520;30.486;2023-02-22T04:09:18;7.65;;;5.65;;
45252;SDS011;63171;50.520;30.486;2023-02-22T04:10:10;8.23;;;6.30;;
45252;SDS011;63171;50.520;30.486;2023-02-22T04:11:01;5.28;;;4.78;;
45252;SDS011;63171;50.520;30.486;2023-02-22T04:11:53;6.60;;;5.65;;
45252;SDS011;63171;50.520;30.486;2023-02-22T04:12:43;6.28;;;5.45;;
45252;SDS011;63171;50.520;30.486;2023-02-22T04:13:34;6.97;;;6.18;;
45252;SDS011;63171;50.520;30.486;2023-02-22T04:14:23;7.53;;;5.80;;
45252;SDS011;63171;50.520;30.486;2023-02-22T04:15:15;6.03;;;5.35;;
45252;SDS011;63171;50.520;30.486;2023-02-22T04:16:07;6.85;;;5.78;;
45252;SDS011;63171;50.520;30.486;2023-02-22T04:16:58;7.30;;;5.25;;
45252;SDS011;63171;50.520;30.486;2023-02-22T04:17:48;5.07;;;4.55;;
45252;SDS011;63171;50.520;30.486;2023-02-22T04:18:40;5.30;;;4.45;;
45252;SDS011;63171;50.520;30.486;2023-02-22T04:19:30;6.00;;;4.82;;
45252;SDS011;63171;50.520;30.486;2023-02-22T04:20:21;6.70;;;5.13;;
45252;SDS011;63171;50.520;30.486;2023-02-22T04:21:19;7.57;;;5.53;;
45252;SDS011;63171;50.520;30.486;2023-02-22T04:22:12;8.50;;;5.35;;
45252;SDS011;63171;50.520;30.486;2023-02-22T04:23:01;7.28;;;6.00;;
45252;SDS011;63171;50.520;30.486;2023-02-22T04:23:52;6.18;;;5.57;;
45252;SDS011;63171;50.520;30.486;2023-02-22T04:24:42;6.60;;;5.05;;
45252;SDS011;63171;50.520;30.486;2023-02-22T04:25:33;6.50;;;5.45;;
45252;SDS011;63171;50.520;30.486;2023-02-22T04:26:33;5.78;;;5.15;;
45252;SDS011;63171;50.520;30.486;2023-02-22T04:27:25;8.70;;;5.47;;
45252;SDS011;63171;50.520;30.486;2023-02-22T04:28:18;6.60;;;5.15;;
45252;SDS011;63171;50.520;30.486;2023-02-22T04:29:15;5.72;;;4.90;;
45252;SDS011;63171;50.520;30.486;2023-02-22T04:30:07;6.68;;;4.93;;
45252;SDS011;63171;50.520;30.486;2023-02-22T04:30:59;6.93;;;5.70;;
45252;SDS011;63171;50.520;30.486;2023-02-22T04:31:50;6.03;;;5.43;;
45252;SDS011;63171;50.520;30.486;2023-02-22T04:32:41;6.95;;;5.78;;
45252;SDS011;63171;50.520;30.486;2023-02-22T04:33:32;6.38;;;5.03;;
45252;SDS011;63171;50.520;30.486;2023-02-22T04:34:23;6.00;;;4.53;;
45252;SDS011;63171;50.520;30.486;2023-02-22T04:35:13;6.10;;;4.70;;
45252;SDS011;63171;50.520;30.486;2023-02-22T04:36:05;7.07;;;4.95;;
45252;SDS011;63171;50.520;30.486;2023-02-22T04:36:58;5.63;;;5.00;;
45252;SDS011;63171;50.520;30.486;2023-02-22T04:37:50;5.80;;;4.72;;
45252;SDS011;63171;50.520;30.486;2023-02-22T04:38:40;7.05;;;4.75;;
45252;SDS011;63171;50.520;30.486;2023-02-22T04:39:31;8.57;;;5.65;;
45252;SDS011;63171;50.520;30.486;2023-02-22T04:40:21;10.15;;;5.72;;
45252;SDS011;63171;50.520;30.486;2023-02-22T04:41:11;6.05;;;4.95;;
45252;SDS011;63171;50.520;30.486;2023-02-22T04:42:01;6.38;;;4.63;;
45252;SDS011;63171;50.520;30.486;2023-02-22T04:42:52;5.22;;;4.47;;
45252;SDS011;63171;50.520;30.486;2023-02-22T04:43:42;5.47;;;4.43;;
45252;SDS011;63171;50.520;30.486;2023-02-22T04:44:38;5.53;;;4.78;;
45252;SDS011;63171;50.520;30.486;2023-02-22T04:45:29;7.47;;;4.80;;
45252;SDS011;63171;50.520;30.486;2023-02-22T04:46:20;6.38;;;4.72;;
45252;SDS011;63171;50.520;30.486;2023-02-22T04:47:09;6.47;;;4.68;;
45252;SDS011;63171;50.520;30.486;2023-02-22T04:48:00;7.38;;;5.45;;
45252;SDS011;63171;50.520;30.486;2023-02-22T04:48:50;9.50;;;4.93;;
45252;SDS011;63171;50.520;30.486;2023-02-22T04:49:44;5.93;;;4.55;;
45252;SDS011;63171;50.520;30.486;2023-02-22T04:50:33;7.35;;;5.65;;
45252;SDS011;63171;50.520;30.486;2023-02-22T04:51:25;7.47;;;4.75;;
45252;SDS011;63171;50.520;30.486;2023-02-22T04:52:22;5.55;;;4.72;;
45252;SDS011;63171;50.520;30.486;2023-02-22T04:53:14;6.35;;;5.20;;
45252;SDS011;63171;50.520;30.486;2023-02-22T04:54:05;6.43;;;5.20;;
45252;SDS011;63171;50.520;30.486;2023-02-22T04:54:57;7.75;;;6.32;;
45252;SDS011;63171;50.520;30.486;2023-02-22T04:55:47;8.73;;;5.60;;
45252;SDS011;63171;50.520;30.486;2023-02-22T04:56:39;8.02;;;5.97;;
45252;SDS011;63171;50.520;30.486;2023-02-22T04:57:28;6.55;;;5.85;;
45252;SDS011;63171;50.520;30.486;2023-02-22T04:58:20;6.95;;;5.68;;
45252;SDS011;63171;50.520;30.486;2023-02-22T04:59:11;7.82;;;5.88;;
45252;SDS011;63171;50.520;30.486;2023-02-22T05:00:06;7.20;;;6.18;;
45252;SDS011;63171;50.520;30.486;2023-02-22T05:00:58;7.10;;;5.68;;
45252;SDS011;63171;50.520;30.486;2023-02-22T05:01:50;8.38;;;5.47;;
45252;SDS011;63171;50.520;30.486;2023-02-22T05:02:39;7.22;;;5.75;;
45252;SDS011;63171;50.520;30.486;2023-02-22T05:03:30;7.50;;;6.00;;
45252;SDS011;63171;50.520;30.486;2023-02-22T05:04:20;7.93;;;6.70;;
45252;SDS011;63171;50.520;30.486;2023-02-22T05:05:12;6.72;;;5.70;;
45252;SDS011;63171;50.520;30.486;2023-02-22T05:06:02;9.75;;;5.60;;
45252;SDS011;63171;50.520;30.486;2023-02-22T05:06:53;7.75;;;5.65;;
45252;SDS011;63171;50.520;30.486;2023-02-22T05:07:44;6.78;;;5.95;;
45252;SDS011;63171;50.520;30.486;2023-02-22T05:08:36;7.07;;;5.60;;
45252;SDS011;63171;50.520;30.486;2023-02-22T05:09:25;7.78;;;5.47;;
45252;SDS011;63171;50.520;30.486;2023-02-22T05:10:16;7.90;;;6.38;;
45252;SDS011;63171;50.520;30.486;2023-02-22T05:11:06;9.65;;;6.38;;
45252;SDS011;63171;50.520;30.486;2023-02-22T05:11:57;9.45;;;6.05;;
45252;SDS011;63171;50.520;30.486;2023-02-22T05:12:47;7.57;;;6.47;;
45252;SDS011;63171;50.520;30.486;2023-02-22T05:13:37;7.05;;;5.93;;
45252;SDS011;63171;50.520;30.486;2023-02-22T05:14:28;9.18;;;6.03;;
45252;SDS011;63171;50.520;30.486;2023-02-22T05:15:19;7.63;;;5.53;;
45252;SDS011;63171;50.520;30.486;2023-02-22T05:16:10;9.98;;;6.70;;
45252;SDS011;63171;50.520;30.486;2023-02-22T05:17:01;7.72;;;6.15;;
45252;SDS011;63171;50.520;30.486;2023-02-22T05:17:52;8.15;;;6.45;;
45252;SDS011;63171;50.520;30.486;2023-02-22T05:18:43;8.30;;;6.00;;
45252;SDS011;63171;50.520;30.486;2023-02-22T05:19:33;8.75;;;6.57;;
45252;SDS011;63171;50.520;30.486;2023-02-22T05:20:25;6.53;;;5.53;;
45252;SDS011;63171;50.520;30.486;2023-02-22T05:21:16;9.02;;;6.07;;
45252;SDS011;63171;50.520;30.486;2023-02-22T05:22:07;7.03;;;5.72;;
45252;SDS011;63171;50.520;30.486;2023-02-22T05:22:58;7.47;;;6.38;;
45252;SDS011;63171;50.520;30.486;2023-02-22T05:23:50;7.07;;;5.70;;
45252;SDS011;63171;50.520;30.486;2023-02-22T05:24:39;7.80;;;5.65;;
45252;SDS011;63171;50.520;30.486;2023-02-22T05:25:30;7.80;;;6.85;;
45252;SDS011;63171;50.520;30.486;2023-02-22T05:26:21;7.22;;;6.53;;
45252;SDS011;63171;50.520;30.486;2023-02-22T05:27:12;8.23;;;6.72;;
45252;SDS011;63171;50.520;30.486;2023-02-22T05:28:02;9.18;;;6.03;;
45252;SDS011;63171;50.520;30.486;2023-02-22T05:28:54;8.35;;;6.13;;
45252;SDS011;63171;50.520;30.486;2023-02-22T05:29:44;6.68;;;5.97;;